createdAt,value
2022-08-08T00:00:50.657Z,99937.47
2022-08-08T00:03:32.476Z,99937.34
2022-08-08T00:06:12.113Z,99941.34
2022-08-08T00:09:07.693Z,99953.44
2022-08-08T00:12:03.109Z,99948.47
2022-08-08T00:14:57.031Z,99947.66
2022-08-08T00:17:48.043Z,99952.34
2022-08-08T00:20:45.067Z,99953.31
2022-08-08T00:23:51.371Z,99953.28
2022-08-08T00:26:34.711Z,99957.19
2022-08-08T00:29:45.069Z,99958.50
2022-08-08T00:32:35.206Z,99955.59
2022-08-08T00:35:18.699Z,99954.16
2022-08-08T00:38:17.051Z,99958.00
2022-08-08T00:41:54.954Z,99961.50
2022-08-08T00:44:42.157Z,99952.09
2022-08-08T00:48:05.522Z,99955.97
2022-08-08T00:51:02.896Z,99959.00
2022-08-08T00:54:13.867Z,99952.34
2022-08-08T00:57:02.176Z,99957.84
2022-08-08T00:59:46.468Z,99958.81
2022-08-08T01:04:01.121Z,99958.09
2022-08-08T01:06:16.230Z,99960.28
2022-08-08T01:09:34.930Z,99955.31
2022-08-08T01:12:15.199Z,99959.19
2022-08-08T01:15:17.342Z,99961.88
2022-08-08T01:18:50.692Z,99965.00
2022-08-08T01:22:12.195Z,99963.06
2022-08-08T01:24:50.722Z,99962.94
2022-08-08T01:27:50.963Z,99968.38
2022-08-08T01:30:45.860Z,99981.13
2022-08-08T01:33:23.772Z,99968.22
2022-08-08T01:36:14.477Z,99967.44
2022-08-08T01:39:24.208Z,99962.97
2022-08-08T01:42:40.235Z,99966.47
2022-08-08T01:45:33.614Z,99975.03
2022-08-08T01:48:27.904Z,99969.75
2022-08-08T01:51:00.912Z,99974.00
2022-08-08T01:54:16.388Z,99976.03
2022-08-08T01:56:49.273Z,99958.16
2022-08-08T01:59:38.284Z,99964.06
2022-08-08T02:02:39.977Z,99956.31
2022-08-08T02:05:56.410Z,99970.78
2022-08-08T02:08:48.180Z,99974.28
2022-08-08T02:11:59.361Z,99965.25
2022-08-08T02:14:55.182Z,99971.03
2022-08-08T02:17:43.018Z,99977.31
2022-08-08T02:21:02.717Z,99981.78
2022-08-08T02:23:31.889Z,99980.75
2022-08-08T02:26:22.062Z,99964.56
2022-08-08T02:29:52.720Z,99958.66
2022-08-08T02:32:52.400Z,99972.88
2022-08-08T02:36:04.855Z,99967.59
2022-08-08T02:38:40.824Z,99969.59
2022-08-08T02:41:59.077Z,99973.25
2022-08-08T02:44:57.426Z,99974.19
2022-08-08T02:47:55.150Z,99980.13
2022-08-08T02:50:53.091Z,99967.56
2022-08-08T02:54:12.105Z,99940.19
2022-08-08T02:57:18.499Z,99981.25
2022-08-08T03:00:35.401Z,99979.78
2022-08-08T03:05:01.136Z,99982.66
2022-08-08T03:06:34.470Z,99957.78
2022-08-08T03:09:43.984Z,99984.91
2022-08-08T03:13:01.825Z,99982.75
2022-08-08T03:16:06.005Z,99979.66
2022-08-08T03:18:39.145Z,99974.06
2022-08-08T03:21:09.612Z,99981.06
2022-08-08T03:23:54.706Z,99984.47
2022-08-08T03:26:33.571Z,99987.34
2022-08-08T03:29:21.054Z,99990.00
2022-08-08T03:32:14.925Z,100000.03
2022-08-08T03:34:42.584Z,100002.94
2022-08-08T03:37:58.984Z,100007.00
2022-08-08T03:40:06.860Z,100007.97
2022-08-08T03:42:47.905Z,100015.78
2022-08-08T03:46:05.676Z,100007.75
2022-08-08T03:48:21.065Z,99989.50
2022-08-08T03:51:06.994Z,100010.38
2022-08-08T03:53:47.344Z,100010.47
2022-08-08T03:56:31.552Z,99999.56
2022-08-08T03:59:03.177Z,100005.34
2022-08-08T04:02:13.316Z,100009.69
2022-08-08T04:04:36.745Z,100008.94
2022-08-08T04:07:04.200Z,100012.31
2022-08-08T04:10:00.843Z,100011.47
2022-08-08T04:12:24.310Z,100002.94
2022-08-08T04:14:51.774Z,100007.66
2022-08-08T04:17:22.618Z,100013.44
2022-08-08T04:20:08.716Z,100017.78
2022-08-08T04:22:37.608Z,100018.75
2022-08-08T04:25:08.581Z,100013.53
2022-08-08T04:28:03.328Z,100026.94
2022-08-08T04:30:39.811Z,100033.31
2022-08-08T04:33:12.413Z,100031.66
2022-08-08T04:35:50.768Z,100039.66
2022-08-08T04:38:22.296Z,100041.72
2022-08-08T04:40:54.864Z,100033.56
2022-08-08T04:43:31.627Z,100046.94
2022-08-08T04:46:14.635Z,100037.81
2022-08-08T04:48:43.727Z,100044.81
2022-08-08T04:51:17.373Z,100034.19
2022-08-08T04:54:36.046Z,100034.09
2022-08-08T04:56:39.760Z,100044.91
2022-08-08T04:59:07.644Z,100040.69
2022-08-08T05:01:48.471Z,100045.06
2022-08-08T05:04:18.927Z,100045.72
2022-08-08T05:06:52.028Z,100055.34
2022-08-08T05:09:22.770Z,100049.50
2022-08-08T05:11:57.010Z,100046.91
2022-08-08T05:14:29.133Z,100056.72
2022-08-08T05:17:01.709Z,100053.81
2022-08-08T05:20:09.994Z,100063.41
2022-08-08T05:22:30.885Z,100060.22
2022-08-08T05:25:00.162Z,100057.16
2022-08-08T05:27:27.583Z,100065.59
2022-08-08T05:30:01.673Z,100058.56
2022-08-08T05:32:42.707Z,100064.22
2022-08-08T05:35:14.690Z,100065.00
2022-08-08T05:37:54.523Z,100069.78
2022-08-08T05:40:47.293Z,100072.53
2022-08-08T05:44:02.205Z,100066.41
2022-08-08T05:46:19.025Z,100071.13
2022-08-08T05:48:52.074Z,100065.38
2022-08-08T05:51:22.824Z,100074.88
2022-08-08T05:54:26.957Z,100040.41
2022-08-08T05:56:47.470Z,100083.56
2022-08-08T05:59:53.610Z,100080.25
2022-08-08T06:02:43.209Z,100069.44
2022-08-08T06:05:34.954Z,100086.94
2022-08-08T06:08:10.214Z,100083.53
2022-08-08T06:10:57.842Z,100077.88
2022-08-08T06:13:35.616Z,100091.59
2022-08-08T06:16:06.587Z,100070.47
2022-08-08T06:18:55.479Z,100091.88
2022-08-08T06:21:33.255Z,100098.94
2022-08-08T06:24:23.233Z,100096.38
2022-08-08T06:27:09.937Z,100107.63
2022-08-08T06:30:20.410Z,100115.56
2022-08-08T06:33:01.139Z,100107.69
2022-08-08T06:36:06.640Z,100102.28
2022-08-08T06:38:28.949Z,100112.56
2022-08-08T06:41:05.903Z,100116.41
2022-08-08T06:43:37.925Z,100109.34
2022-08-08T06:46:16.222Z,100119.38
2022-08-08T06:48:47.453Z,100124.03
2022-08-08T06:51:16.055Z,100119.31
2022-08-08T06:53:50.425Z,100105.69
2022-08-08T06:56:23.288Z,100117.81
2022-08-08T06:58:53.413Z,100112.75
2022-08-08T07:02:28.038Z,100119.91
2022-08-08T07:04:48.027Z,100114.69
2022-08-08T07:07:36.926Z,100124.16
2022-08-08T07:10:08.722Z,100118.03
2022-08-08T07:12:58.972Z,100112.22
2022-08-08T07:16:05.212Z,100116.66
2022-08-08T07:18:43.309Z,100116.81
2022-08-08T07:21:20.546Z,100115.22
2022-08-08T07:24:05.162Z,100118.53
2022-08-08T07:26:41.596Z,100099.34
2022-08-08T07:29:20.259Z,100123.31
2022-08-08T07:31:59.152Z,100102.88
2022-08-08T07:34:31.567Z,100119.13
2022-08-08T07:37:12.028Z,100115.22
2022-08-08T07:39:55.978Z,100112.03
2022-08-08T07:42:33.281Z,100108.06
2022-08-08T07:45:06.093Z,100113.47
2022-08-08T07:47:39.062Z,100092.59
2022-08-08T07:50:11.218Z,100099.47
2022-08-08T07:52:44.872Z,100093.66
2022-08-08T07:55:28.686Z,100109.06
2022-08-08T07:58:02.357Z,100118.09
2022-08-08T08:00:39.166Z,100107.19
2022-08-08T08:03:28.296Z,100112.38
2022-08-08T08:05:59.903Z,100100.16
2022-08-08T08:09:02.738Z,100109.47
2022-08-08T08:11:51.192Z,100113.97
2022-08-08T08:15:02.993Z,100107.69
2022-08-08T08:17:47.808Z,100116.00
2022-08-08T08:20:21.746Z,100099.34
2022-08-08T08:22:57.271Z,100108.44
2022-08-08T08:25:40.801Z,100108.16
2022-08-08T08:28:21.086Z,100076.53
2022-08-08T08:30:54.110Z,100103.19
2022-08-08T08:33:25.187Z,100099.94
2022-08-08T08:36:19.181Z,100109.59
2022-08-08T08:38:49.626Z,100094.84
2022-08-08T08:41:25.047Z,100098.44
2022-08-08T08:44:13.352Z,100104.78
2022-08-08T08:46:45.600Z,100087.22
2022-08-08T08:49:20.763Z,100097.66
2022-08-08T08:51:57.156Z,100091.50
2022-08-08T08:54:32.698Z,100097.06
2022-08-08T08:57:15.776Z,100089.56
2022-08-08T09:00:01.936Z,100086.25
2022-08-08T09:02:41.171Z,100079.47
2022-08-08T09:05:29.070Z,100064.66
2022-08-08T09:08:13.086Z,100083.03
2022-08-08T09:10:50.969Z,100080.59
2022-08-08T09:13:27.824Z,100070.97
2022-08-08T09:16:03.658Z,100066.84
2022-08-08T09:18:35.229Z,100067.97
2022-08-08T09:21:58.262Z,100066.72
2022-08-08T09:23:50.983Z,100059.94
2022-08-08T09:26:51.438Z,100064.34
2022-08-08T09:29:24.761Z,100068.47
2022-08-08T09:32:12.039Z,100061.16
2022-08-08T09:34:51.274Z,100062.53
2022-08-08T09:37:57.336Z,100060.50
2022-08-08T09:40:20.257Z,100064.50
2022-08-08T09:43:16.403Z,100064.13
2022-08-08T09:46:04.071Z,100065.38
2022-08-08T09:48:42.341Z,100058.19
2022-08-08T09:51:10.437Z,100063.72
2022-08-08T09:53:59.355Z,100057.00
2022-08-08T09:56:41.006Z,100056.81
2022-08-08T09:59:42.883Z,100051.97
2022-08-08T10:02:12.832Z,100053.97
2022-08-08T10:04:48.041Z,100042.22
2022-08-08T10:07:17.014Z,100047.06
2022-08-08T10:10:00.652Z,100035.69
2022-08-08T10:12:53.785Z,100039.75
2022-08-08T10:15:36.467Z,100041.72
2022-08-08T10:18:11.608Z,100038.19
2022-08-08T10:20:58.247Z,100043.75
2022-08-08T10:23:57.998Z,100046.66
2022-08-08T10:26:51.911Z,100045.56
2022-08-08T10:29:58.632Z,100036.78
2022-08-08T10:32:35.228Z,100035.09
2022-08-08T10:35:11.548Z,100027.69
2022-08-08T10:37:52.213Z,100023.69
2022-08-08T10:40:22.714Z,100029.81
2022-08-08T10:42:59.075Z,100032.53
2022-08-08T10:45:29.913Z,100038.34
2022-08-08T10:48:11.534Z,100045.38
2022-08-08T10:50:40.131Z,100013.44
2022-08-08T10:53:16.514Z,100036.19
2022-08-08T10:55:46.498Z,100025.41
2022-08-08T10:58:16.082Z,100025.59
2022-08-08T11:00:48.732Z,100018.38
2022-08-08T11:03:52.299Z,100011.75
2022-08-08T11:06:12.662Z,99979.53
2022-08-08T11:08:53.165Z,100016.84
2022-08-08T11:11:32.431Z,100014.94
2022-08-08T11:14:16.260Z,100025.53
2022-08-08T11:16:47.147Z,100009.34
2022-08-08T11:19:15.703Z,100012.72
2022-08-08T11:21:55.447Z,100010.16
2022-08-08T11:24:29.249Z,100011.88
2022-08-08T11:26:58.484Z,100003.66
2022-08-08T11:29:51.302Z,100006.34
2022-08-08T11:32:19.994Z,100003.88
2022-08-08T11:35:08.951Z,99988.22
2022-08-08T11:38:36.115Z,99993.16
2022-08-08T11:40:31.424Z,99984.38
2022-08-08T11:43:00.679Z,99987.28
2022-08-08T11:45:29.938Z,99996.81
2022-08-08T11:48:09.748Z,99974.41
2022-08-08T11:50:38.162Z,99971.22
2022-08-08T11:53:06.647Z,99972.81
2022-08-08T11:55:38.150Z,99964.44
2022-08-08T11:58:14.124Z,99966.75
2022-08-08T12:00:47.604Z,99963.97
2022-08-08T12:03:30.897Z,99970.84
2022-08-08T12:05:59.587Z,99964.44
2022-08-08T12:08:35.139Z,99969.31
2022-08-08T12:11:18.167Z,99956.34
2022-08-08T12:14:03.573Z,99941.50
2022-08-08T12:16:34.379Z,99947.59
2022-08-08T12:19:13.197Z,99940.28
2022-08-08T12:21:59.938Z,99946.03
2022-08-08T12:24:32.088Z,99941.34
2022-08-08T12:26:59.441Z,99933.63
2022-08-08T12:29:40.253Z,99935.41
2022-08-08T12:32:22.373Z,99928.78
2022-08-08T12:35:04.805Z,99929.81
2022-08-08T12:38:01.175Z,99920.84
2022-08-08T12:40:54.376Z,99919.59
2022-08-08T12:43:46.135Z,99917.19
2022-08-08T12:46:26.522Z,99912.97
2022-08-08T12:51:59.266Z,99902.31
2022-08-08T12:54:33.426Z,99910.34
2022-08-08T12:57:24.483Z,99907.94
2022-08-08T13:00:05.117Z,99910.84
2022-08-08T13:02:51.498Z,99914.63
2022-08-08T13:05:26.665Z,99921.09
2022-08-08T13:08:17.014Z,99919.34
2022-08-08T13:10:58.565Z,99914.34
2022-08-08T13:13:35.413Z,99910.63
2022-08-08T13:16:26.038Z,99897.28
2022-08-08T13:19:05.532Z,99898.25
2022-08-08T13:21:53.548Z,99901.66
2022-08-08T13:24:42.343Z,99909.41
2022-08-08T13:27:20.612Z,99907.44
2022-08-08T13:29:56.354Z,99896.50
2022-08-08T13:32:29.326Z,99895.78
2022-08-08T13:35:11.671Z,99903.91
2022-08-08T13:38:06.773Z,99903.94
2022-08-08T13:40:35.864Z,99932.00
2022-08-08T13:43:08.814Z,99926.28
2022-08-08T13:45:37.700Z,99925.56
2022-08-08T13:48:12.619Z,99928.22
2022-08-08T13:50:50.850Z,99916.81
2022-08-08T13:53:31.461Z,99914.97
2022-08-08T13:56:02.959Z,99907.50
2022-08-08T13:58:31.009Z,99921.00
2022-08-08T14:00:58.503Z,99913.44
2022-08-08T14:03:47.064Z,99910.13
2022-08-08T14:06:32.190Z,99915.69
2022-08-08T14:09:25.344Z,99906.84
2022-08-08T14:11:49.292Z,99895.19
2022-08-08T14:14:20.956Z,99912.78
2022-08-08T14:16:53.670Z,99911.78
2022-08-08T14:19:57.086Z,99915.88
2022-08-08T14:22:21.809Z,99895.09
2022-08-08T14:25:00.449Z,99924.53
2022-08-08T14:27:34.114Z,99935.53
2022-08-08T14:30:17.972Z,99926.84
2022-08-08T14:32:54.047Z,99931.72
2022-08-08T14:35:35.039Z,99933.16
2022-08-08T14:38:33.483Z,99929.72
2022-08-08T14:40:59.014Z,99949.53
2022-08-08T14:44:01.663Z,99933.50
2022-08-08T14:46:31.195Z,99947.78
2022-08-08T14:49:09.434Z,99962.16
2022-08-08T14:51:53.125Z,99933.84
2022-08-08T14:54:29.025Z,99952.41
2022-08-08T14:56:58.120Z,99931.25
2022-08-08T14:59:43.525Z,99936.53
2022-08-08T15:02:15.326Z,99944.25
2022-08-08T15:04:45.622Z,99947.56
2022-08-08T15:07:22.872Z,99940.28
2022-08-08T15:10:01.934Z,99950.69
2022-08-08T15:12:31.642Z,99939.50
2022-08-08T15:15:06.843Z,99949.03
2022-08-08T15:17:38.387Z,99957.75
2022-08-08T15:20:14.215Z,99963.72
2022-08-08T15:22:44.642Z,99973.16
2022-08-08T15:25:17.621Z,99965.94
2022-08-08T15:28:05.249Z,99966.69
2022-08-08T15:30:45.911Z,99970.16
2022-08-08T15:33:35.021Z,99964.41
2022-08-08T15:36:04.388Z,99976.53
2022-08-08T15:38:31.802Z,99973.78
2022-08-08T15:41:00.875Z,99975.78
2022-08-08T15:43:35.988Z,99979.94
2022-08-08T15:46:04.454Z,99985.34
2022-08-08T15:48:31.914Z,99987.28
2022-08-08T15:51:03.315Z,99983.13
2022-08-08T15:53:48.968Z,99986.19
2022-08-08T15:56:19.767Z,99969.19
2022-08-08T15:58:49.309Z,99978.75
2022-08-08T16:01:21.039Z,99969.81
2022-08-08T16:03:51.948Z,99952.28
2022-08-08T16:06:28.232Z,99973.19
2022-08-08T16:13:02.213Z,99974.78
2022-08-08T16:13:14.030Z,99974.16
2022-08-08T16:14:36.991Z,99947.88
2022-08-08T16:17:06.214Z,99977.38
2022-08-08T16:19:59.549Z,99976.69
2022-08-08T16:22:30.261Z,99976.25
2022-08-08T16:25:09.575Z,99973.19
2022-08-08T16:27:37.091Z,99971.38
2022-08-08T16:30:13.562Z,99984.63
2022-08-08T16:32:43.743Z,99986.50
2022-08-08T16:35:18.889Z,99982.56
2022-08-08T16:37:59.048Z,99986.47
2022-08-08T16:40:29.086Z,99983.19
2022-08-08T16:42:56.868Z,99983.06
2022-08-08T16:46:37.651Z,99982.63
2022-08-08T16:48:13.464Z,99988.38
2022-08-08T16:50:41.001Z,99996.34
2022-08-08T16:55:19.331Z,99984.72
2022-08-08T16:56:00.505Z,99997.72
2022-08-08T16:58:31.647Z,100017.34
2022-08-08T17:01:05.662Z,100016.66
2022-08-08T17:03:57.868Z,100028.31
2022-08-08T17:06:36.062Z,100037.78
2022-08-08T17:09:07.081Z,100029.53
2022-08-08T17:11:48.582Z,100040.59
2022-08-08T17:14:26.887Z,100037.38
2022-08-08T17:16:58.463Z,100049.63
2022-08-08T17:19:40.823Z,100045.22
2022-08-08T17:22:09.961Z,100052.13
2022-08-08T17:24:38.115Z,100054.00
2022-08-08T17:27:07.565Z,100061.03
2022-08-08T17:29:36.320Z,100051.03
2022-08-08T17:32:11.133Z,100064.03
2022-08-08T17:35:00.189Z,100053.97
2022-08-08T17:37:27.638Z,100061.88
2022-08-08T17:40:10.676Z,100070.09
2022-08-08T17:42:47.239Z,100084.22
2022-08-08T17:45:22.931Z,100077.56
2022-08-08T17:47:51.839Z,100063.63
2022-08-08T17:50:25.041Z,100081.31
2022-08-08T17:53:12.251Z,100082.16
2022-08-08T17:56:04.942Z,100085.44
2022-08-08T17:58:27.629Z,100076.50
2022-08-08T18:00:57.376Z,100098.88
2022-08-08T18:03:25.005Z,100102.38
2022-08-08T18:05:52.401Z,100110.63
2022-08-08T18:08:37.477Z,100107.00
2022-08-08T18:11:17.199Z,100113.66
2022-08-08T18:13:47.894Z,100079.03
2022-08-08T18:16:20.489Z,100077.94
2022-08-08T18:18:52.842Z,100115.13
2022-08-08T18:21:24.962Z,100101.88
2022-08-08T18:24:03.662Z,100114.09
2022-08-08T18:26:34.172Z,100113.34
2022-08-08T18:29:02.675Z,100114.94
2022-08-08T18:31:33.383Z,100119.41
2022-08-08T18:34:18.767Z,100116.13
2022-08-08T18:36:48.328Z,100118.41
2022-08-08T18:39:28.091Z,100130.00
2022-08-08T18:42:03.374Z,100135.06
2022-08-08T18:44:33.139Z,100137.97
2022-08-08T18:47:02.526Z,100144.72
2022-08-08T18:49:41.046Z,100143.69
2022-08-08T18:52:22.717Z,100146.59
2022-08-08T18:55:09.468Z,100142.28
2022-08-08T18:57:43.446Z,100145.78
2022-08-08T19:00:22.410Z,100147.31
2022-08-08T19:02:56.402Z,100150.69
2022-08-08T19:05:32.130Z,100175.25
2022-08-08T19:08:24.969Z,100166.50
2022-08-08T19:10:57.156Z,100170.66
2022-08-08T19:13:25.257Z,100173.00
2022-08-08T19:16:07.277Z,100182.63
2022-08-08T19:18:51.812Z,100172.19
2022-08-08T19:21:30.917Z,100155.91
2022-08-08T19:24:00.579Z,100182.03
2022-08-08T19:26:31.001Z,100186.91
2022-08-08T19:28:59.903Z,100191.63
2022-08-08T19:31:31.868Z,100180.41
2022-08-08T19:34:29.993Z,100180.50
2022-08-08T19:36:53.271Z,100182.03
2022-08-08T19:39:23.027Z,100174.97
2022-08-08T19:41:52.120Z,100172.19
2022-08-08T19:44:26.891Z,100178.88
2022-08-08T19:47:07.003Z,100181.13
2022-08-08T19:49:36.582Z,100168.63
2022-08-08T19:52:07.237Z,100182.19
2022-08-08T19:54:38.665Z,100182.38
2022-08-08T19:57:07.522Z,100174.84
2022-08-08T19:59:35.918Z,100172.69
2022-08-08T20:02:05.327Z,100174.13
2022-08-08T20:04:36.740Z,100182.00
2022-08-08T20:08:28.450Z,100148.34
2022-08-08T20:09:57.106Z,100162.91
2022-08-08T20:12:32.039Z,100161.53
2022-08-08T20:15:14.359Z,100159.22
2022-08-08T20:17:47.664Z,100175.88
2022-08-08T20:20:19.592Z,100167.16
2022-08-08T20:22:53.748Z,100172.81
2022-08-08T20:25:21.864Z,100167.03
2022-08-08T20:27:50.152Z,100175.00
2022-08-08T20:30:52.690Z,100167.75
2022-08-08T20:33:18.766Z,100169.72
2022-08-08T20:35:57.226Z,100172.56
2022-08-08T20:38:32.737Z,100174.19
2022-08-08T20:41:12.097Z,100176.56
2022-08-08T20:43:49.781Z,100172.16
2022-08-08T20:46:21.229Z,100175.97
2022-08-08T20:48:58.154Z,100170.09
2022-08-08T20:51:27.941Z,100177.59
2022-08-08T20:54:04.207Z,100175.94
2022-08-08T20:57:05.739Z,100159.13
2022-08-08T20:59:31.200Z,100165.56
2022-08-08T21:02:06.302Z,100166.16
2022-08-08T21:04:39.229Z,100172.19
2022-08-08T21:07:16.012Z,100168.16
2022-08-08T21:09:48.492Z,100171.41
2022-08-08T21:12:32.434Z,100179.06
2022-08-08T21:15:07.017Z,100178.28
2022-08-08T21:17:38.814Z,100170.69
2022-08-08T21:20:10.686Z,100174.66
2022-08-08T21:22:38.791Z,100173.78
2022-08-08T21:25:10.590Z,100165.53
2022-08-08T21:28:09.249Z,100158.53
2022-08-08T21:30:36.349Z,100164.97
2022-08-08T21:33:08.133Z,100169.09
2022-08-08T21:36:17.478Z,100172.28
2022-08-08T21:38:33.975Z,100166.38
2022-08-08T21:41:01.826Z,100173.47
2022-08-08T21:43:34.967Z,100170.69
2022-08-08T21:48:08.722Z,100170.09
2022-08-08T21:49:01.188Z,100167.78
2022-08-08T21:54:32.649Z,100183.13
2022-08-08T21:54:52.278Z,100188.88
2022-08-08T21:57:11.914Z,100188.22
2022-08-08T22:00:01.396Z,100189.00
2022-08-08T22:02:28.720Z,100182.13
2022-08-08T22:04:59.509Z,100184.59
2022-08-08T22:07:39.712Z,100194.25
2022-08-08T22:10:18.510Z,100189.84
2022-08-08T22:13:17.372Z,100178.88
2022-08-08T22:15:58.504Z,100192.66
2022-08-08T22:18:30.192Z,100197.31
2022-08-08T22:21:14.186Z,100200.56
2022-08-08T22:23:51.066Z,100195.00
2022-08-08T22:26:30.894Z,100196.69
2022-08-08T22:29:56.987Z,100176.34
2022-08-08T22:32:01.775Z,100196.09
2022-08-08T22:34:32.683Z,100197.88
2022-08-08T22:37:01.067Z,100196.81
2022-08-08T22:39:39.354Z,100195.31
2022-08-08T22:42:27.536Z,100196.31
2022-08-08T22:45:00.839Z,100194.53
2022-08-08T22:47:34.542Z,100191.47
2022-08-08T22:50:20.775Z,100191.69
2022-08-08T22:53:24.127Z,100201.31
2022-08-08T22:55:58.589Z,100200.72
2022-08-08T22:58:32.856Z,100183.97
2022-08-08T23:01:30.226Z,100192.03
2022-08-08T23:03:56.299Z,100176.22
2022-08-08T23:06:27.577Z,100175.72
2022-08-08T23:09:00.054Z,100180.50
2022-08-08T23:12:28.371Z,100177.94
2022-08-08T23:14:27.359Z,100179.03
2022-08-08T23:16:59.652Z,100168.03
2022-08-08T23:19:30.751Z,100164.81
2022-08-08T23:22:06.931Z,100164.31
2022-08-08T23:24:42.667Z,100151.94
2022-08-08T23:27:39.095Z,100172.25
2022-08-08T23:30:09.484Z,100170.44
2022-08-08T23:32:41.689Z,100173.41
2022-08-08T23:35:17.407Z,100173.88
2022-08-08T23:38:01.055Z,100166.66
2022-08-08T23:40:37.279Z,100166.88
2022-08-08T23:43:12.088Z,100165.38
2022-08-08T23:49:01.113Z,100163.91
2022-08-08T23:49:02.238Z,100164.09
2022-08-08T23:51:41.822Z,100151.34
2022-08-08T23:54:42.233Z,100158.13
2022-08-08T23:56:53.853Z,100152.41
2022-08-08T23:59:22.523Z,100154.72
